createdAt,value
2018-07-17T00:00:40.431Z,1015.59
2018-07-17T00:01:50.277Z,1015.63
2018-07-17T00:02:40.402Z,1015.66
2018-07-17T00:03:40.334Z,1015.65
2018-07-17T00:04:40.509Z,1015.66
2018-07-17T00:05:40.389Z,1015.66
2018-07-17T00:06:40.184Z,1015.69
2018-07-17T00:07:40.480Z,1015.68
2018-07-17T00:08:40.344Z,1015.65
2018-07-17T00:09:40.646Z,1015.63
2018-07-17T00:10:40.521Z,1015.62
2018-07-17T00:11:40.642Z,1015.61
2018-07-17T00:12:40.734Z,1015.63
2018-07-17T00:13:40.193Z,1015.59
2018-07-17T00:14:40.503Z,1015.57
2018-07-17T00:15:40.478Z,1015.61
2018-07-17T00:16:40.319Z,1015.62
2018-07-17T00:17:40.421Z,1015.61
2018-07-17T00:18:40.368Z,1015.62
2018-07-17T00:19:40.350Z,1015.62
2018-07-17T00:20:40.236Z,1015.64
2018-07-17T00:21:40.578Z,1015.61
2018-07-17T00:22:40.469Z,1015.6
2018-07-17T00:23:40.540Z,1015.63
2018-07-17T00:24:40.337Z,1015.61
2018-07-17T00:25:40.468Z,1015.57
2018-07-17T00:26:40.552Z,1015.63
2018-07-17T00:27:40.304Z,1015.61
2018-07-17T00:28:40.437Z,1015.59
2018-07-17T00:29:40.445Z,1015.59
2018-07-17T00:30:40.456Z,1015.57
2018-07-17T00:31:40.447Z,1015.55
2018-07-17T00:32:40.542Z,1015.53
2018-07-17T00:33:40.374Z,1015.56
2018-07-17T00:34:40.214Z,1015.55
2018-07-17T00:35:40.438Z,1015.56
2018-07-17T00:36:40.205Z,1015.54
2018-07-17T00:37:40.425Z,1015.51
2018-07-17T00:38:40.460Z,1015.5
2018-07-17T00:39:40.504Z,1015.54
2018-07-17T00:40:40.461Z,1015.52
2018-07-17T00:41:40.585Z,1015.51
2018-07-17T00:42:40.408Z,1015.47
2018-07-17T00:43:40.214Z,1015.49
2018-07-17T00:44:40.348Z,1015.46
2018-07-17T00:45:40.405Z,1015.47
2018-07-17T00:46:40.407Z,1015.48
2018-07-17T00:47:40.497Z,1015.5
2018-07-17T00:48:40.334Z,1015.49
2018-07-17T00:49:40.377Z,1015.52
2018-07-17T00:50:40.173Z,1015.51
2018-07-17T00:51:40.360Z,1015.48
2018-07-17T00:52:40.318Z,1015.51
2018-07-17T00:53:40.390Z,1015.52
2018-07-17T00:54:40.427Z,1015.53
2018-07-17T00:55:40.681Z,1015.53
2018-07-17T00:56:40.612Z,1015.58
2018-07-17T00:57:40.220Z,1015.54
2018-07-17T00:58:40.758Z,1015.55
2018-07-17T00:59:40.374Z,1015.53
2018-07-17T01:00:40.351Z,1015.52
2018-07-17T01:01:40.353Z,1015.52
2018-07-17T01:02:40.556Z,1015.53
2018-07-17T01:03:40.351Z,1015.55
2018-07-17T01:04:40.541Z,1015.55
2018-07-17T01:05:40.260Z,1015.54
2018-07-17T01:06:50.427Z,1015.53
2018-07-17T01:07:40.257Z,1015.55
2018-07-17T01:08:40.626Z,1015.53
2018-07-17T01:09:40.575Z,1015.49
2018-07-17T01:10:40.308Z,1015.5
2018-07-17T01:11:40.205Z,1015.47
2018-07-17T01:12:40.427Z,1015.43
2018-07-17T01:13:40.473Z,1015.44
2018-07-17T01:14:40.403Z,1015.44
2018-07-17T01:15:40.255Z,1015.42
2018-07-17T01:16:40.339Z,1015.43
2018-07-17T01:17:40.360Z,1015.42
2018-07-17T01:18:40.290Z,1015.42
2018-07-17T01:19:40.387Z,1015.41
2018-07-17T01:20:40.354Z,1015.42
2018-07-17T01:21:40.525Z,1015.45
2018-07-17T01:22:40.385Z,1015.43
2018-07-17T01:23:40.283Z,1015.42
2018-07-17T01:24:40.324Z,1015.38
2018-07-17T01:25:40.423Z,1015.38
2018-07-17T01:26:40.319Z,1015.41
2018-07-17T01:27:40.222Z,1015.46
2018-07-17T01:28:40.400Z,1015.43
2018-07-17T01:29:40.542Z,1015.45
2018-07-17T01:30:40.467Z,1015.47
2018-07-17T01:31:40.399Z,1015.49
2018-07-17T01:32:51.265Z,1015.5
2018-07-17T01:33:40.476Z,1015.5
2018-07-17T01:34:40.207Z,1015.52
2018-07-17T01:35:40.379Z,1015.52
2018-07-17T01:36:40.476Z,1015.53
2018-07-17T01:37:40.343Z,1015.54
2018-07-17T01:38:40.385Z,1015.5
2018-07-17T01:39:40.370Z,1015.5
2018-07-17T01:40:40.693Z,1015.51
2018-07-17T01:41:40.871Z,1015.51
2018-07-17T01:42:40.502Z,1015.54
2018-07-17T01:43:40.478Z,1015.47
2018-07-17T01:44:40.207Z,1015.51
2018-07-17T01:45:40.514Z,1015.52
2018-07-17T01:46:40.431Z,1015.52
2018-07-17T01:47:40.324Z,1015.47
2018-07-17T01:48:40.484Z,1015.47
2018-07-17T01:49:40.700Z,1015.45
2018-07-17T01:50:40.578Z,1015.45
2018-07-17T01:51:40.238Z,1015.46
2018-07-17T01:52:40.447Z,1015.45
2018-07-17T01:53:40.662Z,1015.42
2018-07-17T01:54:40.381Z,1015.45
2018-07-17T01:55:40.254Z,1015.4
2018-07-17T01:56:40.525Z,1015.42
2018-07-17T01:57:40.402Z,1015.43
2018-07-17T01:58:40.353Z,1015.34
2018-07-17T01:59:40.574Z,1015.37
2018-07-17T02:00:40.210Z,1015.39
2018-07-17T02:01:40.463Z,1015.38
2018-07-17T02:02:40.358Z,1015.39
2018-07-17T02:03:40.572Z,1015.4
2018-07-17T02:04:40.704Z,1015.42
2018-07-17T02:05:40.653Z,1015.38
2018-07-17T02:06:40.396Z,1015.36
2018-07-17T02:07:40.176Z,1015.39
2018-07-17T02:08:40.463Z,1015.37
2018-07-17T02:09:40.292Z,1015.32
2018-07-17T02:10:40.271Z,1015.33
2018-07-17T02:11:40.252Z,1015.37
2018-07-17T02:12:40.229Z,1015.29
2018-07-17T02:13:40.604Z,1015.35
2018-07-17T02:14:40.194Z,1015.33
2018-07-17T02:15:40.516Z,1015.36
2018-07-17T02:16:40.395Z,1015.39
2018-07-17T02:17:40.447Z,1015.36
2018-07-17T02:18:40.603Z,1015.38
2018-07-17T02:19:40.254Z,1015.44
2018-07-17T02:20:40.754Z,1015.41
2018-07-17T02:21:40.234Z,1015.4
2018-07-17T02:22:40.466Z,1015.37
2018-07-17T02:23:40.239Z,1015.39
2018-07-17T02:24:40.440Z,1015.37
2018-07-17T02:25:40.326Z,1015.38
2018-07-17T02:26:40.615Z,1015.39
2018-07-17T02:27:40.667Z,1015.37
2018-07-17T02:28:40.550Z,1015.39
2018-07-17T02:29:40.144Z,1015.41
2018-07-17T02:30:40.188Z,1015.43
2018-07-17T02:31:40.705Z,1015.43
2018-07-17T02:32:40.363Z,1015.43
2018-07-17T02:33:40.603Z,1015.45
2018-07-17T02:34:40.275Z,1015.47
2018-07-17T02:35:40.494Z,1015.47
2018-07-17T02:36:40.755Z,1015.45
2018-07-17T02:37:40.194Z,1015.45
2018-07-17T02:38:40.339Z,1015.46
2018-07-17T02:39:40.791Z,1015.51
2018-07-17T02:40:40.648Z,1015.48
2018-07-17T02:41:41.077Z,1015.45
2018-07-17T02:42:40.282Z,1015.48
2018-07-17T02:43:40.651Z,1015.47
2018-07-17T02:44:40.642Z,1015.5
2018-07-17T02:45:40.284Z,1015.53
2018-07-17T02:46:40.150Z,1015.55
2018-07-17T02:47:40.490Z,1015.6
2018-07-17T02:48:40.463Z,1015.62
2018-07-17T02:49:40.220Z,1015.62
2018-07-17T02:50:40.518Z,1015.66
2018-07-17T02:51:40.610Z,1015.68
2018-07-17T02:52:40.236Z,1015.68
2018-07-17T02:53:40.261Z,1015.62
2018-07-17T02:54:40.325Z,1015.65
2018-07-17T02:55:40.402Z,1015.62
2018-07-17T02:56:40.553Z,1015.63
2018-07-17T02:57:40.490Z,1015.62
2018-07-17T02:58:40.238Z,1015.65
2018-07-17T02:59:41.879Z,1015.62
2018-07-17T03:00:40.180Z,1015.68
2018-07-17T03:01:40.501Z,1015.59
2018-07-17T03:02:40.466Z,1015.63
2018-07-17T03:03:40.411Z,1015.63
2018-07-17T03:04:40.370Z,1015.6
2018-07-17T03:05:40.338Z,1015.69
2018-07-17T03:06:40.444Z,1015.71
2018-07-17T03:07:40.278Z,1015.69
2018-07-17T03:08:40.271Z,1015.73
2018-07-17T03:09:40.414Z,1015.73
2018-07-17T03:10:40.255Z,1015.78
2018-07-17T03:11:40.609Z,1015.81
2018-07-17T03:12:40.368Z,1015.79
2018-07-17T03:13:40.605Z,1015.79
2018-07-17T03:15:11.801Z,1015.82
2018-07-17T03:15:40.183Z,1015.84
2018-07-17T03:16:40.661Z,1015.77
2018-07-17T03:17:40.172Z,1015.82
2018-07-17T03:18:40.199Z,1015.86
2018-07-17T03:19:40.311Z,1015.84
2018-07-17T03:20:40.678Z,1015.85
2018-07-17T03:21:40.296Z,1015.9
2018-07-17T03:22:40.200Z,1015.91
2018-07-17T03:23:40.318Z,1015.9
2018-07-17T03:24:50.205Z,1015.92
2018-07-17T03:25:40.253Z,1015.97
2018-07-17T03:26:40.263Z,1015.96
2018-07-17T03:27:40.258Z,1015.89
2018-07-17T03:28:40.240Z,1015.88
2018-07-17T03:29:40.174Z,1015.92
2018-07-17T03:30:40.270Z,1015.93
2018-07-17T03:31:40.471Z,1015.91
2018-07-17T03:32:40.341Z,1015.94
2018-07-17T03:33:40.668Z,1015.97
2018-07-17T03:34:40.342Z,1016.03
2018-07-17T03:35:40.513Z,1016.01
2018-07-17T03:36:40.132Z,1016.03
2018-07-17T03:37:40.438Z,1016.1
2018-07-17T03:38:40.488Z,1016.07
2018-07-17T03:39:40.338Z,1016.1
2018-07-17T03:40:40.480Z,1016.1
2018-07-17T03:41:40.128Z,1016.09
2018-07-17T03:42:40.333Z,1016.07
2018-07-17T03:43:40.176Z,1016.06
2018-07-17T03:44:40.549Z,1016.13
2018-07-17T03:45:40.195Z,1016.07
2018-07-17T03:46:40.703Z,1016.11
2018-07-17T03:47:40.262Z,1016.1
2018-07-17T03:48:40.348Z,1016.11
2018-07-17T03:49:40.176Z,1016.13
2018-07-17T03:50:40.696Z,1016.12
2018-07-17T03:51:40.267Z,1016.16
2018-07-17T03:52:40.263Z,1016.15
2018-07-17T03:53:40.344Z,1016.15
2018-07-17T03:54:40.567Z,1016.14
2018-07-17T03:55:40.723Z,1016.15
2018-07-17T03:56:40.386Z,1016.18
2018-07-17T03:57:40.310Z,1016.16
2018-07-17T03:58:40.326Z,1016.14
2018-07-17T03:59:40.650Z,1016.15
2018-07-17T04:00:40.332Z,1016.14
2018-07-17T04:01:40.174Z,1016.15
2018-07-17T04:02:40.436Z,1016.15
2018-07-17T04:03:40.406Z,1016.16
2018-07-17T04:04:40.255Z,1016.13
2018-07-17T04:05:40.222Z,1016.18
2018-07-17T04:06:40.325Z,1016.19
2018-07-17T04:07:40.358Z,1016.18
2018-07-17T04:08:40.977Z,1016.18
2018-07-17T04:09:40.294Z,1016.16
2018-07-17T04:10:40.152Z,1016.13
2018-07-17T04:11:40.354Z,1016.14
2018-07-17T04:12:40.342Z,1016.13
2018-07-17T04:13:40.672Z,1016.19
2018-07-17T04:14:40.660Z,1016.17
2018-07-17T04:15:40.233Z,1016.19
2018-07-17T04:16:40.338Z,1016.19
2018-07-17T04:17:40.754Z,1016.16
2018-07-17T04:18:40.653Z,1016.16
2018-07-17T04:19:40.098Z,1016.17
2018-07-17T04:20:40.416Z,1016.19
2018-07-17T04:21:40.254Z,1016.18
2018-07-17T04:22:40.216Z,1016.17
2018-07-17T04:23:40.201Z,1016.19
2018-07-17T04:24:40.366Z,1016.23
2018-07-17T04:25:40.327Z,1016.2
2018-07-17T04:26:40.147Z,1016.25
2018-07-17T04:27:40.644Z,1016.24
2018-07-17T04:28:40.133Z,1016.22
2018-07-17T04:29:40.716Z,1016.23
2018-07-17T04:30:40.145Z,1016.24
2018-07-17T04:31:40.733Z,1016.23
2018-07-17T04:32:40.297Z,1016.23
2018-07-17T04:33:40.160Z,1016.25
2018-07-17T04:34:40.376Z,1016.23
2018-07-17T04:35:40.297Z,1016.22
2018-07-17T04:36:40.251Z,1016.25
2018-07-17T04:37:40.169Z,1016.23
2018-07-17T04:38:40.222Z,1016.24
2018-07-17T04:39:40.654Z,1016.22
2018-07-17T04:40:40.279Z,1016.24
2018-07-17T04:41:40.191Z,1016.21
2018-07-17T04:42:40.349Z,1016.21
2018-07-17T04:43:40.607Z,1016.22
2018-07-17T04:44:40.261Z,1016.26
2018-07-17T04:45:40.553Z,1016.3
2018-07-17T04:46:40.124Z,1016.32
2018-07-17T04:47:40.142Z,1016.31
2018-07-17T04:48:40.254Z,1016.35
2018-07-17T04:49:40.168Z,1016.35
2018-07-17T04:50:40.365Z,1016.34
2018-07-17T04:51:40.326Z,1016.36
2018-07-17T04:52:40.209Z,1016.38
2018-07-17T04:53:40.138Z,1016.4
2018-07-17T04:54:40.327Z,1016.4
2018-07-17T04:55:40.613Z,1016.41
2018-07-17T04:56:40.372Z,1016.37
2018-07-17T04:57:40.259Z,1016.44
2018-07-17T04:58:40.436Z,1016.4
2018-07-17T04:59:40.164Z,1016.39
2018-07-17T05:00:40.212Z,1016.4
2018-07-17T05:01:40.877Z,1016.36
2018-07-17T05:02:40.124Z,1016.38
2018-07-17T05:03:40.513Z,1016.37
2018-07-17T05:04:40.301Z,1016.35
2018-07-17T05:05:40.387Z,1016.4
2018-07-17T05:06:40.292Z,1016.39
2018-07-17T05:07:40.582Z,1016.38
2018-07-17T05:08:40.361Z,1016.42
2018-07-17T05:09:40.118Z,1016.4
2018-07-17T05:10:40.389Z,1016.4
2018-07-17T05:11:40.206Z,1016.4
2018-07-17T05:12:40.367Z,1016.46
2018-07-17T05:13:40.318Z,1016.42
2018-07-17T05:14:40.258Z,1016.47
2018-07-17T05:15:40.557Z,1016.46
2018-07-17T05:16:40.397Z,1016.48
2018-07-17T05:17:40.411Z,1016.46
2018-07-17T05:18:50.250Z,1016.49
2018-07-17T05:19:40.318Z,1016.51
2018-07-17T05:20:40.317Z,1016.55
2018-07-17T05:21:40.293Z,1016.58
2018-07-17T05:22:40.282Z,1016.63
2018-07-17T05:23:40.204Z,1016.6
2018-07-17T05:24:40.741Z,1016.65
2018-07-17T05:25:40.396Z,1016.68
2018-07-17T05:26:40.388Z,1016.72
2018-07-17T05:27:40.337Z,1016.76
2018-07-17T05:28:40.299Z,1016.73
2018-07-17T05:29:40.511Z,1016.71
2018-07-17T05:30:40.050Z,1016.77
2018-07-17T05:31:40.171Z,1016.76
2018-07-17T05:32:40.258Z,1016.78
2018-07-17T05:33:40.353Z,1016.75
2018-07-17T05:34:40.376Z,1016.74
2018-07-17T05:35:40.353Z,1016.72
2018-07-17T05:36:40.203Z,1016.79
2018-07-17T05:37:40.199Z,1016.73
2018-07-17T05:38:40.655Z,1016.76
2018-07-17T05:39:40.192Z,1016.75
2018-07-17T05:40:40.311Z,1016.8
2018-07-17T05:41:40.603Z,1016.78
2018-07-17T05:42:40.290Z,1016.78
2018-07-17T05:43:40.368Z,1016.79
2018-07-17T05:44:40.199Z,1016.77
2018-07-17T05:45:40.242Z,1016.76
2018-07-17T05:46:40.194Z,1016.74
2018-07-17T05:47:40.388Z,1016.75
2018-07-17T05:48:40.347Z,1016.77
2018-07-17T05:49:40.212Z,1016.8
2018-07-17T05:50:40.298Z,1016.84
2018-07-17T05:51:40.359Z,1016.81
2018-07-17T05:52:40.136Z,1016.82
2018-07-17T05:53:40.105Z,1016.85
2018-07-17T05:54:40.225Z,1016.86
2018-07-17T05:55:40.320Z,1016.87
2018-07-17T05:56:40.244Z,1016.84
2018-07-17T05:57:40.408Z,1016.85
2018-07-17T05:58:40.297Z,1016.87
2018-07-17T05:59:40.263Z,1016.89
2018-07-17T06:00:40.152Z,1016.86
2018-07-17T06:01:40.404Z,1016.86
2018-07-17T06:02:40.397Z,1016.86
2018-07-17T06:03:40.160Z,1016.86
2018-07-17T06:04:40.327Z,1016.87
2018-07-17T06:05:40.432Z,1016.87
2018-07-17T06:06:40.361Z,1016.9
2018-07-17T06:07:50.167Z,1016.84
2018-07-17T06:08:40.249Z,1016.85
2018-07-17T06:09:40.379Z,1016.87
2018-07-17T06:10:40.324Z,1016.83
2018-07-17T06:11:40.326Z,1016.84
2018-07-17T06:13:03.716Z,1016.81
2018-07-17T06:14:03.953Z,1016.84
2018-07-17T06:15:03.529Z,1016.82
2018-07-17T06:16:03.893Z,1016.83
2018-07-17T06:17:03.670Z,1016.89
2018-07-17T06:18:04.455Z,1016.92
2018-07-17T06:19:04.069Z,1016.87
2018-07-17T06:20:03.800Z,1016.9
2018-07-17T06:21:03.754Z,1016.89
2018-07-17T06:22:03.868Z,1016.89
2018-07-17T06:23:03.798Z,1016.91
2018-07-17T06:24:03.704Z,1016.88
2018-07-17T06:25:03.931Z,1016.89
2018-07-17T06:26:03.687Z,1016.88
2018-07-17T06:27:03.786Z,1016.86
2018-07-17T06:28:03.514Z,1016.85
2018-07-17T06:29:03.702Z,1016.87
2018-07-17T06:30:03.769Z,1016.89
2018-07-17T06:31:03.862Z,1016.87
2018-07-17T06:32:03.642Z,1016.86
2018-07-17T06:33:04.202Z,1016.86
2018-07-17T06:34:03.868Z,1016.91
2018-07-17T06:35:03.834Z,1016.87
2018-07-17T06:36:03.585Z,1016.88
2018-07-17T06:37:03.763Z,1016.91
2018-07-17T06:38:03.651Z,1016.9
2018-07-17T06:39:03.658Z,1016.91
2018-07-17T06:40:03.638Z,1016.94
2018-07-17T06:41:03.609Z,1016.94
2018-07-17T06:42:03.692Z,1016.89
2018-07-17T06:43:03.721Z,1016.94
2018-07-17T06:44:03.655Z,1016.95
2018-07-17T06:45:03.651Z,1016.9
2018-07-17T06:46:03.700Z,1016.95
2018-07-17T06:47:03.586Z,1016.9
2018-07-17T06:48:03.721Z,1016.94
2018-07-17T06:49:03.651Z,1016.97
2018-07-17T06:50:03.633Z,1017
2018-07-17T06:51:03.767Z,1016.95
2018-07-17T06:52:03.766Z,1016.97
2018-07-17T06:53:03.576Z,1016.97
2018-07-17T06:54:03.685Z,1016.97
2018-07-17T06:55:03.773Z,1016.98
2018-07-17T06:56:03.732Z,1016.98
2018-07-17T06:57:03.654Z,1016.95
2018-07-17T06:58:03.722Z,1016.93
2018-07-17T06:59:04.015Z,1016.93
2018-07-17T07:00:03.698Z,1016.93
2018-07-17T07:01:03.700Z,1016.96
2018-07-17T07:02:03.496Z,1016.98
2018-07-17T07:03:03.618Z,1016.92
2018-07-17T07:04:03.574Z,1016.98
2018-07-17T07:05:03.579Z,1016.99
2018-07-17T07:06:03.872Z,1016.95
2018-07-17T07:07:03.591Z,1016.97
2018-07-17T07:08:03.680Z,1016.98
2018-07-17T07:09:03.634Z,1016.93
2018-07-17T07:10:03.626Z,1016.93
2018-07-17T07:11:03.579Z,1016.95
2018-07-17T07:12:03.796Z,1016.9
2018-07-17T07:13:03.547Z,1016.89
2018-07-17T07:14:03.582Z,1016.91
2018-07-17T07:15:03.689Z,1016.95
2018-07-17T07:16:03.791Z,1016.95
2018-07-17T07:17:03.532Z,1016.92
2018-07-17T07:18:03.844Z,1016.93
2018-07-17T07:19:03.538Z,1016.9
2018-07-17T07:20:03.479Z,1016.91
2018-07-17T07:21:03.767Z,1016.93
2018-07-17T07:22:03.552Z,1016.93
2018-07-17T07:23:03.619Z,1016.89
2018-07-17T07:24:03.630Z,1016.89
2018-07-17T07:25:03.598Z,1016.88
2018-07-17T07:26:03.881Z,1016.87
2018-07-17T07:27:03.723Z,1016.88
2018-07-17T07:28:03.799Z,1016.87
2018-07-17T07:29:03.678Z,1016.89
2018-07-17T07:30:03.750Z,1016.85
2018-07-17T07:31:04.095Z,1016.85
2018-07-17T07:32:03.799Z,1016.87
2018-07-17T07:33:03.769Z,1016.91
2018-07-17T07:34:03.719Z,1016.88
2018-07-17T07:35:03.671Z,1016.85
2018-07-17T07:36:03.597Z,1016.85
2018-07-17T07:37:03.657Z,1016.83
2018-07-17T07:38:03.557Z,1016.85
2018-07-17T07:39:03.673Z,1016.9
2018-07-17T07:40:03.763Z,1016.91
2018-07-17T07:41:03.712Z,1016.83
2018-07-17T07:42:03.637Z,1016.88
2018-07-17T07:43:03.797Z,1016.87
2018-07-17T07:44:03.881Z,1016.81
2018-07-17T07:45:03.621Z,1016.85
2018-07-17T07:46:03.688Z,1016.85
2018-07-17T07:47:03.516Z,1016.84
2018-07-17T07:48:04.004Z,1016.89
2018-07-17T07:49:03.678Z,1016.9
2018-07-17T07:50:03.736Z,1016.86
2018-07-17T07:51:03.500Z,1016.94
2018-07-17T07:52:03.621Z,1016.87
2018-07-17T07:53:03.659Z,1016.91
2018-07-17T07:54:03.731Z,1016.9
2018-07-17T07:55:03.723Z,1016.93
2018-07-17T07:56:03.917Z,1016.9
2018-07-17T07:57:03.881Z,1016.91
2018-07-17T07:58:03.573Z,1016.9
2018-07-17T07:59:03.710Z,1016.88
2018-07-17T08:00:03.896Z,1016.91
2018-07-17T08:01:03.849Z,1016.87
2018-07-17T08:02:03.706Z,1016.9
2018-07-17T08:03:03.854Z,1016.89
2018-07-17T08:04:04.294Z,1016.89
2018-07-17T08:05:03.704Z,1016.86
2018-07-17T08:06:03.576Z,1016.88
2018-07-17T08:07:03.676Z,1016.85
2018-07-17T08:08:03.679Z,1016.85
2018-07-17T08:09:03.625Z,1016.86
2018-07-17T08:10:03.654Z,1016.81
2018-07-17T08:11:03.669Z,1016.83
2018-07-17T08:12:03.972Z,1016.84
2018-07-17T08:13:03.753Z,1016.86
2018-07-17T08:14:03.775Z,1016.88
2018-07-17T08:15:03.792Z,1016.89
2018-07-17T08:16:03.546Z,1016.9
2018-07-17T08:17:03.605Z,1016.87
2018-07-17T08:18:04.139Z,1016.9
2018-07-17T08:19:03.612Z,1016.88
2018-07-17T08:20:03.831Z,1016.88
2018-07-17T08:21:03.630Z,1016.9
2018-07-17T08:22:03.733Z,1016.87
2018-07-17T08:23:03.465Z,1016.88
2018-07-17T08:24:03.630Z,1016.88
2018-07-17T08:25:03.582Z,1016.89
2018-07-17T08:26:03.751Z,1016.88
2018-07-17T08:27:03.480Z,1016.87
2018-07-17T08:28:03.622Z,1016.88
2018-07-17T08:29:03.710Z,1016.89
2018-07-17T08:30:03.678Z,1016.9
2018-07-17T08:31:03.687Z,1016.92
2018-07-17T08:32:03.737Z,1016.89
2018-07-17T08:33:03.597Z,1016.9
2018-07-17T08:34:03.659Z,1016.88
2018-07-17T08:35:03.729Z,1016.89
2018-07-17T08:36:03.669Z,1016.95
2018-07-17T08:37:03.745Z,1016.94
2018-07-17T08:38:03.674Z,1016.95
2018-07-17T08:39:03.566Z,1016.94
2018-07-17T08:40:03.713Z,1016.9
2018-07-17T08:41:03.578Z,1016.9
2018-07-17T08:42:03.720Z,1016.95
2018-07-17T08:43:03.478Z,1016.96
2018-07-17T08:44:03.587Z,1016.93
2018-07-17T08:45:03.720Z,1016.93
2018-07-17T08:46:03.672Z,1016.97
2018-07-17T08:47:03.641Z,1016.9
2018-07-17T08:48:03.618Z,1016.89
2018-07-17T08:49:03.977Z,1016.87
2018-07-17T08:50:03.614Z,1016.93
2018-07-17T08:51:03.725Z,1016.89
2018-07-17T08:52:03.778Z,1016.93
2018-07-17T08:53:03.607Z,1016.92
2018-07-17T08:54:03.751Z,1016.93
2018-07-17T08:55:03.642Z,1016.97
2018-07-17T08:56:03.837Z,1016.9
2018-07-17T08:57:03.778Z,1016.93
2018-07-17T08:58:03.600Z,1016.88
2018-07-17T08:59:03.712Z,1016.91
2018-07-17T09:00:03.668Z,1016.88
2018-07-17T09:01:03.571Z,1016.86
2018-07-17T09:02:03.809Z,1016.91
2018-07-17T09:03:03.624Z,1016.87
2018-07-17T09:04:03.673Z,1016.9
2018-07-17T09:05:03.666Z,1016.88
2018-07-17T09:06:03.644Z,1016.86
2018-07-17T09:07:03.581Z,1016.89
2018-07-17T09:08:03.658Z,1016.89
2018-07-17T09:09:03.628Z,1016.9
2018-07-17T09:10:03.602Z,1016.9
2018-07-17T09:11:03.622Z,1016.9
2018-07-17T09:12:03.711Z,1016.9
2018-07-17T09:13:03.876Z,1016.92
2018-07-17T09:14:03.687Z,1016.91
2018-07-17T09:15:03.656Z,1016.96
2018-07-17T09:16:03.655Z,1016.96
2018-07-17T09:17:03.845Z,1016.92
2018-07-17T09:18:03.626Z,1016.91
2018-07-17T09:19:03.572Z,1016.93
2018-07-17T09:20:03.658Z,1016.93
2018-07-17T09:21:03.596Z,1016.95
2018-07-17T09:22:03.873Z,1016.92
2018-07-17T09:23:03.669Z,1016.96
2018-07-17T09:24:03.581Z,1016.89
2018-07-17T09:25:03.698Z,1016.91
2018-07-17T09:26:03.564Z,1016.96
2018-07-17T09:27:03.692Z,1016.92
2018-07-17T09:28:03.658Z,1016.92
2018-07-17T09:29:03.663Z,1016.96
2018-07-17T09:30:03.651Z,1016.93
2018-07-17T09:31:03.663Z,1016.92
2018-07-17T09:32:03.508Z,1016.94
2018-07-17T09:33:03.625Z,1016.93
2018-07-17T09:34:03.678Z,1016.91
2018-07-17T09:35:03.829Z,1016.92
2018-07-17T09:36:03.725Z,1016.91
2018-07-17T09:37:03.646Z,1016.87
2018-07-17T09:38:03.767Z,1016.88
2018-07-17T09:39:03.909Z,1016.88
2018-07-17T09:40:03.612Z,1016.91
2018-07-17T09:41:03.732Z,1016.89
2018-07-17T09:42:03.771Z,1016.88
2018-07-17T09:43:03.633Z,1016.9
2018-07-17T09:44:03.670Z,1016.9
2018-07-17T09:45:03.676Z,1016.91
2018-07-17T09:46:03.605Z,1016.95
2018-07-17T09:47:03.547Z,1016.9
2018-07-17T09:48:03.628Z,1016.91
2018-07-17T09:49:03.580Z,1016.92
2018-07-17T09:50:03.715Z,1016.93
2018-07-17T09:51:03.627Z,1016.91
2018-07-17T09:52:03.692Z,1016.91
2018-07-17T09:53:03.636Z,1016.89
2018-07-17T09:54:03.749Z,1016.89
2018-07-17T09:55:03.591Z,1016.88
2018-07-17T09:56:03.551Z,1016.87
2018-07-17T09:57:03.647Z,1016.85
2018-07-17T09:58:03.698Z,1016.85
2018-07-17T09:59:03.680Z,1016.85
2018-07-17T10:00:03.759Z,1016.86
2018-07-17T10:01:03.608Z,1016.87
2018-07-17T10:02:03.622Z,1016.86
2018-07-17T10:03:03.698Z,1016.87
2018-07-17T10:04:03.779Z,1016.88
2018-07-17T10:05:03.596Z,1016.91
2018-07-17T10:06:03.504Z,1016.91
2018-07-17T10:07:03.702Z,1016.93
2018-07-17T10:08:03.725Z,1016.95
2018-07-17T10:09:03.751Z,1016.91
2018-07-17T10:10:03.478Z,1016.92
2018-07-17T10:11:03.599Z,1016.93
2018-07-17T10:12:03.516Z,1016.96
2018-07-17T10:13:03.955Z,1016.89
2018-07-17T10:14:03.698Z,1016.92
2018-07-17T10:15:03.505Z,1016.92
2018-07-17T10:16:03.735Z,1016.91
2018-07-17T10:17:03.800Z,1016.9
2018-07-17T10:18:03.654Z,1016.86
2018-07-17T10:19:03.677Z,1016.87
2018-07-17T10:20:03.969Z,1016.88
2018-07-17T10:21:03.599Z,1016.89
2018-07-17T10:22:03.705Z,1016.89
2018-07-17T10:23:03.911Z,1016.9
2018-07-17T10:24:03.458Z,1016.89
2018-07-17T10:25:03.639Z,1016.9
2018-07-17T10:26:03.640Z,1016.92
2018-07-17T10:27:03.581Z,1016.9
2018-07-17T10:28:03.793Z,1016.91
2018-07-17T10:29:03.591Z,1016.92
2018-07-17T10:30:03.679Z,1016.89
2018-07-17T10:31:03.623Z,1016.85
2018-07-17T10:32:03.842Z,1016.81
2018-07-17T10:33:03.476Z,1016.81
2018-07-17T10:34:03.702Z,1016.81
2018-07-17T10:35:03.623Z,1016.8
2018-07-17T10:36:03.558Z,1016.75
2018-07-17T10:37:03.653Z,1016.76
2018-07-17T10:38:03.690Z,1016.81
2018-07-17T10:39:03.672Z,1016.81
2018-07-17T10:40:03.769Z,1016.76
2018-07-17T10:41:03.629Z,1016.75
2018-07-17T10:42:03.529Z,1016.74
2018-07-17T10:43:03.713Z,1016.73
2018-07-17T10:44:03.619Z,1016.76
2018-07-17T10:45:03.750Z,1016.71
2018-07-17T10:46:03.670Z,1016.7
2018-07-17T10:47:03.635Z,1016.65
2018-07-17T10:48:03.674Z,1016.67
2018-07-17T10:49:03.731Z,1016.64
2018-07-17T10:50:03.841Z,1016.61
2018-07-17T10:51:03.699Z,1016.62
2018-07-17T10:52:03.520Z,1016.61
2018-07-17T10:53:03.779Z,1016.62
2018-07-17T10:54:03.731Z,1016.61
2018-07-17T10:55:03.532Z,1016.54
2018-07-17T10:56:03.785Z,1016.57
2018-07-17T10:57:03.648Z,1016.55
2018-07-17T10:58:03.703Z,1016.63
2018-07-17T10:59:03.539Z,1016.64
2018-07-17T11:00:03.938Z,1016.6
2018-07-17T11:01:03.971Z,1016.6
2018-07-17T11:02:03.609Z,1016.62
2018-07-17T11:03:03.756Z,1016.6
2018-07-17T11:04:03.894Z,1016.57
2018-07-17T11:05:03.660Z,1016.59
2018-07-17T11:06:03.497Z,1016.63
2018-07-17T11:07:03.509Z,1016.65
2018-07-17T11:08:03.647Z,1016.65
2018-07-17T11:09:03.491Z,1016.65
2018-07-17T11:10:03.598Z,1016.66
2018-07-17T11:11:03.806Z,1016.6
2018-07-17T11:12:03.659Z,1016.64
2018-07-17T11:13:03.618Z,1016.61
2018-07-17T11:14:03.771Z,1016.6
2018-07-17T11:15:03.666Z,1016.54
2018-07-17T11:16:03.624Z,1016.52
2018-07-17T11:17:03.657Z,1016.55
2018-07-17T11:18:03.680Z,1016.52
2018-07-17T11:19:03.662Z,1016.47
2018-07-17T11:20:03.636Z,1016.51
2018-07-17T11:21:03.575Z,1016.42
2018-07-17T11:22:03.671Z,1016.4
2018-07-17T11:23:03.813Z,1016.43
2018-07-17T11:24:03.746Z,1016.45
2018-07-17T11:25:03.662Z,1016.48
2018-07-17T11:26:03.671Z,1016.38
2018-07-17T11:27:03.436Z,1016.43
2018-07-17T11:28:03.627Z,1016.43
2018-07-17T11:29:03.548Z,1016.43
2018-07-17T11:30:03.554Z,1016.42
2018-07-17T11:31:03.760Z,1016.38
2018-07-17T11:32:04.040Z,1016.36
2018-07-17T11:33:03.656Z,1016.37
2018-07-17T11:34:03.729Z,1016.43
2018-07-17T11:35:03.731Z,1016.37
2018-07-17T11:36:13.705Z,1016.35
2018-07-17T11:37:03.830Z,1016.35
2018-07-17T11:38:03.813Z,1016.31
2018-07-17T11:39:03.868Z,1016.26
2018-07-17T11:40:03.594Z,1016.31
2018-07-17T11:41:03.552Z,1016.28
2018-07-17T11:42:03.575Z,1016.32
2018-07-17T11:43:03.820Z,1016.32
2018-07-17T11:44:03.767Z,1016.37
2018-07-17T11:45:03.610Z,1016.3
2018-07-17T11:46:03.539Z,1016.39
2018-07-17T11:47:03.721Z,1016.51
2018-07-17T11:48:03.844Z,1016.54
2018-07-17T11:49:03.557Z,1016.55
2018-07-17T11:50:03.493Z,1016.53
2018-07-17T11:51:03.668Z,1016.62
2018-07-17T11:52:03.630Z,1016.65
2018-07-17T11:53:03.688Z,1016.7
2018-07-17T11:54:03.788Z,1016.7
2018-07-17T11:55:03.836Z,1016.78
2018-07-17T11:56:03.731Z,1016.75
2018-07-17T11:57:03.725Z,1016.82
2018-07-17T11:58:03.658Z,1016.83
2018-07-17T11:59:03.966Z,1016.82
2018-07-17T12:00:03.727Z,1016.88
2018-07-17T12:01:03.697Z,1016.86
2018-07-17T12:02:03.619Z,1016.87
2018-07-17T12:03:03.560Z,1016.87
2018-07-17T12:04:03.722Z,1016.86
2018-07-17T12:05:03.601Z,1016.88
2018-07-17T12:06:03.629Z,1016.86
2018-07-17T12:07:03.572Z,1016.88
2018-07-17T12:08:03.680Z,1016.88
2018-07-17T12:09:03.576Z,1016.85